Aeroporto :
LOGIN :

Iscrizione | Disclaimer

   EN    FR    IT 

 










Sommario :    VFR   VFR Marginale   IFR   IFR Intensivo   IFR Molto Intensivo
Visibilità : 
Base nubi : 
>= 8 km
>= 3000ft
5 / 8 km
1000 / 3000 ft
1500m / 5 km
500 / 1000 ft
800 / 1500m
200 / 500 ft
< 800m
< 200 ft
Simboli :   Temporali  Nebbia  Neve Forte  Precipitazioni Forti  Vento > 20 kt
SIGMETs :   Varie  Temporali  Ghiacco  Turbolenza  Onda orograficha  Ceneri Vulcaniche






- Altitudine del aeroporto : 1273 ft
- Codice IATA : LJU


LJLJ - Ljubljana

ULTIMO METAR :
  • 151230Z 27005KT 9999 RA SCT003 SCT023 BKN045 09/08 Q1007 NOSIG

METARs OBSOLETI :
  • 151200Z 16004KT 100V220 9999 -RA SCT005 SCT033 BKN045 09/08 Q1008 RERA NOSIG
  • 151130Z 14002KT 9999 RA SCT005 SCT033 BKN060 09/07 Q1008 NOSIG
  • 151100Z 16007KT 9999 RA SCT005 SCT033 BKN060 08/07 Q1008 NOSIG
  • 151030Z 16007KT 9999 RA FEW003 SCT007 BKN048 08/07 Q1009 NOSIG
  • 151000Z 13009KT 9999 FEW003 SCT007 BKN018 08/07 Q1009 NOSIG
  • 150930Z 14005KT 9000 FEW003 BKN007 OVC017 08/07 Q1010 NOSIG

TAF TAF LJLJ
Valido dal 15 a 12 ore il 16 a 12 ore UTC


151100Z 1512/1612 14005KT 9999 FEW003 SCT007 BKN045
TEMPO 1512/1519 -RA FEW001 SCT005 OVC030
TEMPO 1512/1519 SHRA BKN020TCU
BECMG 1519/1521 12010KT 7000 SHRA BKN020TCU OVC025
BECMG 1601/1604 31004KT 9999 NSW SCT005 BKN025 OVC035
TEMPO 1604/1612 -RA SCT003 OVC012



MetMap, La meteo Aeronautica in un colpo d'occhio ! - Copyright ORBIFLY Dicembre 2007 - Disclaimer

ORBIFLY MET'MAP TEAM :

Programmazione e sviluppo : Alexandra Zaïnal
Concezione e sviluppo : Baudouin d'Aumeries
Co-Programmazione e sviluppo : Marc-Olivier Méhu
Supporto tecnico e logistico : Manuel Goepfert
Aiuto per la traduzione : Arnaldo La Scala

Contatto : metmap@orbifly.com




FONTI E CREDITI :

   NOAA